sensor_id;sensor_type;location;lat;lon;timestamp;P1;durP1;ratioP1;P2;durP2;ratioP2
3155;SDS011;1588;50.892;7.082;2022-10-31T00:11:23;14.70;;;6.10;;
3155;SDS011;1588;50.892;7.082;2022-10-31T00:17:05;12.27;;;6.40;;
3155;SDS011;1588;50.892;7.082;2022-10-31T00:22:19;14.83;;;6.03;;
3155;SDS011;1588;50.892;7.082;2022-10-31T00:27:33;23.23;;;6.63;;
3155;SDS011;1588;50.892;7.082;2022-10-31T00:32:46;15.17;;;6.97;;
3155;SDS011;1588;50.892;7.082;2022-10-31T00:38:04;13.67;;;6.23;;
3155;SDS011;1588;50.892;7.082;2022-10-31T00:43:34;12.63;;;6.23;;
3155;SDS011;1588;50.892;7.082;2022-10-31T00:48:56;13.23;;;6.80;;
3155;SDS011;1588;50.892;7.082;2022-10-31T01:06:14;19.20;;;6.43;;
3155;SDS011;1588;50.892;7.082;2022-10-31T01:11:17;13.80;;;6.27;;
3155;SDS011;1588;50.892;7.082;2022-10-31T01:23:03;17.90;;;6.80;;
3155;SDS011;1588;50.892;7.082;2022-10-31T01:29:34;16.43;;;6.30;;
3155;SDS011;1588;50.892;7.082;2022-10-31T01:34:09;12.43;;;6.50;;
3155;SDS011;1588;50.892;7.082;2022-10-31T01:39:27;21.33;;;6.80;;
3155;SDS011;1588;50.892;7.082;2022-10-31T01:44:53;20.90;;;6.30;;
3155;SDS011;1588;50.892;7.082;2022-10-31T01:49:59;14.07;;;6.43;;
3155;SDS011;1588;50.892;7.082;2022-10-31T01:55:12;14.50;;;7.27;;
3155;SDS011;1588;50.892;7.082;2022-10-31T02:06:47;16.57;;;6.30;;
3155;SDS011;1588;50.892;7.082;2022-10-31T02:17:25;21.57;;;7.63;;
3155;SDS011;1588;50.892;7.082;2022-10-31T02:41:32;16.47;;;6.20;;
3155;SDS011;1588;50.892;7.082;2022-10-31T02:46:52;14.40;;;6.50;;
3155;SDS011;1588;50.892;7.082;2022-10-31T02:52:01;13.40;;;6.40;;
3155;SDS011;1588;50.892;7.082;2022-10-31T03:10:24;19.87;;;6.60;;
3155;SDS011;1588;50.892;7.082;2022-10-31T03:15:56;15.93;;;7.30;;
3155;SDS011;1588;50.892;7.082;2022-10-31T03:27:44;15.63;;;7.30;;
3155;SDS011;1588;50.892;7.082;2022-10-31T03:45:50;11.57;;;6.60;;
3155;SDS011;1588;50.892;7.082;2022-10-31T03:51:11;20.33;;;6.90;;
3155;SDS011;1588;50.892;7.082;2022-10-31T03:57:21;11.53;;;6.53;;
3155;SDS011;1588;50.892;7.082;2022-10-31T04:02:51;15.07;;;6.73;;
3155;SDS011;1588;50.892;7.082;2022-10-31T04:08:26;16.40;;;7.90;;
3155;SDS011;1588;50.892;7.082;2022-10-31T04:13:37;30.80;;;6.53;;
3155;SDS011;1588;50.892;7.082;2022-10-31T04:18:48;19.67;;;6.70;;
3155;SDS011;1588;50.892;7.082;2022-10-31T04:23:50;12.00;;;6.50;;
3155;SDS011;1588;50.892;7.082;2022-10-31T04:34:37;18.17;;;6.30;;
3155;SDS011;1588;50.892;7.082;2022-10-31T04:39:47;17.17;;;6.60;;
3155;SDS011;1588;50.892;7.082;2022-10-31T04:45:05;20.30;;;7.50;;
3155;SDS011;1588;50.892;7.082;2022-10-31T04:50:09;18.03;;;7.30;;
3155;SDS011;1588;50.892;7.082;2022-10-31T04:55:16;17.07;;;7.50;;
3155;SDS011;1588;50.892;7.082;2022-10-31T05:00:29;18.20;;;7.20;;
3155;SDS011;1588;50.892;7.082;2022-10-31T05:05:55;16.63;;;6.23;;
3155;SDS011;1588;50.892;7.082;2022-10-31T05:11:12;18.77;;;6.77;;
3155;SDS011;1588;50.892;7.082;2022-10-31T05:16:19;13.40;;;7.70;;
3155;SDS011;1588;50.892;7.082;2022-10-31T05:21:26;25.07;;;7.40;;
3155;SDS011;1588;50.892;7.082;2022-10-31T05:26:30;18.83;;;6.47;;
3155;SDS011;1588;50.892;7.082;2022-10-31T05:31:34;21.20;;;7.20;;
3155;SDS011;1588;50.892;7.082;2022-10-31T05:36:37;12.77;;;6.70;;
3155;SDS011;1588;50.892;7.082;2022-10-31T05:41:41;17.73;;;6.37;;
3155;SDS011;1588;50.892;7.082;2022-10-31T05:46:43;20.23;;;7.10;;
3155;SDS011;1588;50.892;7.082;2022-10-31T05:52:18;12.27;;;7.37;;
3155;SDS011;1588;50.892;7.082;2022-10-31T05:57:35;17.03;;;7.00;;
3155;SDS011;1588;50.892;7.082;2022-10-31T06:02:40;15.13;;;7.33;;
3155;SDS011;1588;50.892;7.082;2022-10-31T06:07:53;14.33;;;6.90;;
3155;SDS011;1588;50.892;7.082;2022-10-31T06:12:59;14.47;;;7.00;;
3155;SDS011;1588;50.892;7.082;2022-10-31T06:18:02;19.30;;;7.00;;
3155;SDS011;1588;50.892;7.082;2022-10-31T06:23:09;17.57;;;7.10;;
3155;SDS011;1588;50.892;7.082;2022-10-31T06:28:55;15.97;;;7.50;;
3155;SDS011;1588;50.892;7.082;2022-10-31T06:34:04;13.07;;;6.30;;
3155;SDS011;1588;50.892;7.082;2022-10-31T06:40:03;15.80;;;6.97;;
3155;SDS011;1588;50.892;7.082;2022-10-31T06:45:06;18.73;;;7.93;;
3155;SDS011;1588;50.892;7.082;2022-10-31T06:50:09;12.77;;;6.40;;
3155;SDS011;1588;50.892;7.082;2022-10-31T06:55:26;19.03;;;8.27;;
3155;SDS011;1588;50.892;7.082;2022-10-31T07:00:35;19.03;;;8.43;;
3155;SDS011;1588;50.892;7.082;2022-10-31T07:11:29;23.20;;;7.60;;
3155;SDS011;1588;50.892;7.082;2022-10-31T07:17:20;22.13;;;7.80;;
3155;SDS011;1588;50.892;7.082;2022-10-31T07:22:34;16.00;;;8.80;;
3155;SDS011;1588;50.892;7.082;2022-10-31T07:33:19;17.70;;;8.57;;
3155;SDS011;1588;50.892;7.082;2022-10-31T07:38:58;17.90;;;8.57;;
3155;SDS011;1588;50.892;7.082;2022-10-31T07:44:10;29.13;;;8.03;;
3155;SDS011;1588;50.892;7.082;2022-10-31T07:50:10;18.60;;;7.70;;
3155;SDS011;1588;50.892;7.082;2022-10-31T07:55:26;20.73;;;7.93;;
3155;SDS011;1588;50.892;7.082;2022-10-31T08:12:10;26.90;;;8.03;;
3155;SDS011;1588;50.892;7.082;2022-10-31T08:18:12;19.67;;;8.33;;
3155;SDS011;1588;50.892;7.082;2022-10-31T08:23:22;17.07;;;8.03;;
3155;SDS011;1588;50.892;7.082;2022-10-31T08:28:35;15.93;;;7.50;;
3155;SDS011;1588;50.892;7.082;2022-10-31T08:39:50;17.83;;;7.90;;
3155;SDS011;1588;50.892;7.082;2022-10-31T08:44:57;21.37;;;7.57;;
3155;SDS011;1588;50.892;7.082;2022-10-31T08:50:14;15.43;;;7.50;;
3155;SDS011;1588;50.892;7.082;2022-10-31T08:55:39;18.13;;;7.47;;
3155;SDS011;1588;50.892;7.082;2022-10-31T09:01:12;17.33;;;7.20;;
3155;SDS011;1588;50.892;7.082;2022-10-31T09:06:18;16.00;;;7.53;;
3155;SDS011;1588;50.892;7.082;2022-10-31T09:11:21;12.60;;;6.63;;
3155;SDS011;1588;50.892;7.082;2022-10-31T09:16:37;24.70;;;7.33;;
3155;SDS011;1588;50.892;7.082;2022-10-31T09:21:53;14.17;;;6.60;;
3155;SDS011;1588;50.892;7.082;2022-10-31T09:26:56;16.63;;;8.00;;
3155;SDS011;1588;50.892;7.082;2022-10-31T09:32:00;13.17;;;7.67;;
3155;SDS011;1588;50.892;7.082;2022-10-31T09:37:07;16.73;;;7.90;;
3155;SDS011;1588;50.892;7.082;2022-10-31T09:42:40;20.87;;;7.90;;
3155;SDS011;1588;50.892;7.082;2022-10-31T09:48:20;16.80;;;7.10;;
3155;SDS011;1588;50.892;7.082;2022-10-31T09:59:15;13.43;;;6.30;;
3155;SDS011;1588;50.892;7.082;2022-10-31T10:04:41;17.73;;;6.30;;
3155;SDS011;1588;50.892;7.082;2022-10-31T10:09:48;12.30;;;6.50;;
3155;SDS011;1588;50.892;7.082;2022-10-31T10:21:20;15.93;;;6.00;;
3155;SDS011;1588;50.892;7.082;2022-10-31T10:32:39;16.70;;;6.10;;
3155;SDS011;1588;50.892;7.082;2022-10-31T10:37:48;15.00;;;6.00;;
3155;SDS011;1588;50.892;7.082;2022-10-31T10:43:35;19.90;;;6.20;;
3155;SDS011;1588;50.892;7.082;2022-10-31T10:50:48;11.17;;;5.83;;
3155;SDS011;1588;50.892;7.082;2022-10-31T10:54:42;19.23;;;6.87;;
3155;SDS011;1588;50.892;7.082;2022-10-31T10:59:52;14.13;;;5.70;;
3155;SDS011;1588;50.892;7.082;2022-10-31T11:05:02;13.80;;;6.23;;
3155;SDS011;1588;50.892;7.082;2022-10-31T11:10:13;17.40;;;6.60;;
3155;SDS011;1588;50.892;7.082;2022-10-31T11:15:20;27.40;;;7.70;;
3155;SDS011;1588;50.892;7.082;2022-10-31T11:20:26;17.80;;;7.13;;
3155;SDS011;1588;50.892;7.082;2022-10-31T11:25:32;15.70;;;6.20;;
3155;SDS011;1588;50.892;7.082;2022-10-31T11:30:47;21.87;;;6.87;;
3155;SDS011;1588;50.892;7.082;2022-10-31T11:42:38;12.33;;;5.50;;
3155;SDS011;1588;50.892;7.082;2022-10-31T11:53:54;11.03;;;5.17;;
3155;SDS011;1588;50.892;7.082;2022-10-31T11:59:32;10.73;;;5.10;;
3155;SDS011;1588;50.892;7.082;2022-10-31T12:05:26;9.57;;;4.47;;
3155;SDS011;1588;50.892;7.082;2022-10-31T12:10:44;12.67;;;5.37;;
3155;SDS011;1588;50.892;7.082;2022-10-31T12:16:00;13.83;;;4.23;;
3155;SDS011;1588;50.892;7.082;2022-10-31T12:33:07;9.97;;;4.50;;
3155;SDS011;1588;50.892;7.082;2022-10-31T12:38:40;13.70;;;4.13;;
3155;SDS011;1588;50.892;7.082;2022-10-31T12:43:56;17.93;;;4.37;;
3155;SDS011;1588;50.892;7.082;2022-10-31T12:49:12;11.80;;;4.20;;
3155;SDS011;1588;50.892;7.082;2022-10-31T12:54:34;14.73;;;4.43;;
3155;SDS011;1588;50.892;7.082;2022-10-31T12:59:49;19.80;;;4.47;;
3155;SDS011;1588;50.892;7.082;2022-10-31T13:05:19;11.60;;;4.67;;
3155;SDS011;1588;50.892;7.082;2022-10-31T13:10:31;8.87;;;4.00;;
3155;SDS011;1588;50.892;7.082;2022-10-31T13:15:47;16.13;;;5.13;;
3155;SDS011;1588;50.892;7.082;2022-10-31T13:21:27;10.40;;;3.93;;
3155;SDS011;1588;50.892;7.082;2022-10-31T13:27:13;12.40;;;4.20;;
3155;SDS011;1588;50.892;7.082;2022-10-31T14:02:01;10.80;;;4.53;;
3155;SDS011;1588;50.892;7.082;2022-10-31T14:07:41;10.23;;;4.40;;
3155;SDS011;1588;50.892;7.082;2022-10-31T14:13:13;21.77;;;4.50;;
3155;SDS011;1588;50.892;7.082;2022-10-31T14:18:28;11.30;;;4.00;;
3155;SDS011;1588;50.892;7.082;2022-10-31T14:29:29;10.67;;;4.40;;
3155;SDS011;1588;50.892;7.082;2022-10-31T14:34:52;12.57;;;3.87;;
3155;SDS011;1588;50.892;7.082;2022-10-31T14:58:22;11.30;;;3.43;;
3155;SDS011;1588;50.892;7.082;2022-10-31T15:04:11;11.87;;;3.43;;
3155;SDS011;1588;50.892;7.082;2022-10-31T15:09:34;11.30;;;3.57;;
3155;SDS011;1588;50.892;7.082;2022-10-31T15:14:49;8.03;;;3.40;;
3155;SDS011;1588;50.892;7.082;2022-10-31T15:20:21;9.83;;;3.20;;
3155;SDS011;1588;50.892;7.082;2022-10-31T15:25:42;11.97;;;4.23;;
3155;SDS011;1588;50.892;7.082;2022-10-31T15:31:29;8.07;;;3.70;;
3155;SDS011;1588;50.892;7.082;2022-10-31T15:36:38;8.87;;;3.80;;
3155;SDS011;1588;50.892;7.082;2022-10-31T15:41:55;12.70;;;4.20;;
3155;SDS011;1588;50.892;7.082;2022-10-31T15:47:05;6.70;;;3.27;;
3155;SDS011;1588;50.892;7.082;2022-10-31T15:52:14;10.30;;;3.33;;
3155;SDS011;1588;50.892;7.082;2022-10-31T15:57:22;6.83;;;3.43;;
3155;SDS011;1588;50.892;7.082;2022-10-31T16:02:29;14.10;;;4.60;;
3155;SDS011;1588;50.892;7.082;2022-10-31T16:07:53;6.40;;;3.50;;
3155;SDS011;1588;50.892;7.082;2022-10-31T16:19:47;10.23;;;3.87;;
3155;SDS011;1588;50.892;7.082;2022-10-31T16:26:16;15.23;;;4.23;;
3155;SDS011;1588;50.892;7.082;2022-10-31T16:44:18;14.27;;;3.50;;
3155;SDS011;1588;50.892;7.082;2022-10-31T16:50:13;10.53;;;4.20;;
3155;SDS011;1588;50.892;7.082;2022-10-31T16:55:46;8.00;;;3.73;;
3155;SDS011;1588;50.892;7.082;2022-10-31T17:01:33;12.57;;;3.90;;
3155;SDS011;1588;50.892;7.082;2022-10-31T17:13:39;10.17;;;4.30;;
3155;SDS011;1588;50.892;7.082;2022-10-31T17:19:11;13.70;;;3.63;;
3155;SDS011;1588;50.892;7.082;2022-10-31T17:24:51;16.10;;;3.40;;
3155;SDS011;1588;50.892;7.082;2022-10-31T17:55:23;13.27;;;3.77;;
3155;SDS011;1588;50.892;7.082;2022-10-31T18:00:44;22.03;;;4.40;;
3155;SDS011;1588;50.892;7.082;2022-10-31T18:06:21;6.50;;;3.53;;
3155;SDS011;1588;50.892;7.082;2022-10-31T18:23:41;9.03;;;4.17;;
3155;SDS011;1588;50.892;7.082;2022-10-31T18:29:09;13.20;;;4.33;;
3155;SDS011;1588;50.892;7.082;2022-10-31T18:35:04;20.37;;;4.07;;
3155;SDS011;1588;50.892;7.082;2022-10-31T18:40:49;7.87;;;4.43;;
3155;SDS011;1588;50.892;7.082;2022-10-31T19:15:55;13.60;;;4.50;;
3155;SDS011;1588;50.892;7.082;2022-10-31T19:21:33;7.60;;;4.03;;
3155;SDS011;1588;50.892;7.082;2022-10-31T19:27:20;12.00;;;4.20;;
3155;SDS011;1588;50.892;7.082;2022-10-31T19:32:38;11.83;;;4.70;;
3155;SDS011;1588;50.892;7.082;2022-10-31T19:38:06;9.10;;;4.33;;
3155;SDS011;1588;50.892;7.082;2022-10-31T19:43:11;7.70;;;4.10;;
3155;SDS011;1588;50.892;7.082;2022-10-31T19:48:16;7.93;;;4.90;;
3155;SDS011;1588;50.892;7.082;2022-10-31T19:53:20;10.37;;;4.47;;
3155;SDS011;1588;50.892;7.082;2022-10-31T19:58:23;8.33;;;4.77;;
3155;SDS011;1588;50.892;7.082;2022-10-31T20:03:26;14.73;;;5.03;;
3155;SDS011;1588;50.892;7.082;2022-10-31T20:08:38;15.37;;;5.20;;
3155;SDS011;1588;50.892;7.082;2022-10-31T20:13:44;15.60;;;4.73;;
3155;SDS011;1588;50.892;7.082;2022-10-31T20:18:55;7.83;;;4.43;;
3155;SDS011;1588;50.892;7.082;2022-10-31T20:24:04;14.63;;;5.17;;
3155;SDS011;1588;50.892;7.082;2022-10-31T20:29:09;17.17;;;4.33;;
3155;SDS011;1588;50.892;7.082;2022-10-31T20:34:15;6.77;;;4.47;;
3155;SDS011;1588;50.892;7.082;2022-10-31T20:39:20;9.47;;;4.80;;
3155;SDS011;1588;50.892;7.082;2022-10-31T20:44:35;18.20;;;4.70;;
3155;SDS011;1588;50.892;7.082;2022-10-31T20:49:42;10.17;;;4.60;;
3155;SDS011;1588;50.892;7.082;2022-10-31T20:54:56;8.23;;;4.80;;
3155;SDS011;1588;50.892;7.082;2022-10-31T21:00:12;14.80;;;4.60;;
3155;SDS011;1588;50.892;7.082;2022-10-31T21:05:17;9.87;;;4.03;;
3155;SDS011;1588;50.892;7.082;2022-10-31T21:10:24;13.40;;;4.40;;
3155;SDS011;1588;50.892;7.082;2022-10-31T21:15:29;9.10;;;4.10;;
3155;SDS011;1588;50.892;7.082;2022-10-31T21:20:33;14.17;;;4.83;;
3155;SDS011;1588;50.892;7.082;2022-10-31T21:25:42;12.43;;;4.30;;
3155;SDS011;1588;50.892;7.082;2022-10-31T21:30:49;11.57;;;5.00;;
3155;SDS011;1588;50.892;7.082;2022-10-31T21:36:04;9.03;;;5.10;;
3155;SDS011;1588;50.892;7.082;2022-10-31T21:41:14;13.10;;;4.47;;
3155;SDS011;1588;50.892;7.082;2022-10-31T21:46:17;15.60;;;4.40;;
3155;SDS011;1588;50.892;7.082;2022-10-31T21:51:22;14.73;;;4.07;;
3155;SDS011;1588;50.892;7.082;2022-10-31T21:56:27;8.97;;;4.20;;
3155;SDS011;1588;50.892;7.082;2022-10-31T22:01:37;12.13;;;3.70;;
3155;SDS011;1588;50.892;7.082;2022-10-31T22:06:42;10.43;;;4.37;;
3155;SDS011;1588;50.892;7.082;2022-10-31T22:11:49;15.23;;;4.27;;
3155;SDS011;1588;50.892;7.082;2022-10-31T22:17:15;11.10;;;4.40;;
3155;SDS011;1588;50.892;7.082;2022-10-31T22:22:23;8.47;;;3.90;;
3155;SDS011;1588;50.892;7.082;2022-10-31T22:27:31;16.63;;;4.43;;
3155;SDS011;1588;50.892;7.082;2022-10-31T22:32:41;9.80;;;4.40;;
3155;SDS011;1588;50.892;7.082;2022-10-31T22:37:49;7.30;;;4.13;;
3155;SDS011;1588;50.892;7.082;2022-10-31T22:42:52;13.13;;;4.57;;
3155;SDS011;1588;50.892;7.082;2022-10-31T22:47:55;13.40;;;4.47;;
3155;SDS011;1588;50.892;7.082;2022-10-31T22:52:57;9.27;;;4.13;;
3155;SDS011;1588;50.892;7.082;2022-10-31T22:58:01;10.43;;;4.83;;
3155;SDS011;1588;50.892;7.082;2022-10-31T23:03:04;7.67;;;4.00;;
3155;SDS011;1588;50.892;7.082;2022-10-31T23:08:06;5.80;;;3.97;;
3155;SDS011;1588;50.892;7.082;2022-10-31T23:13:10;9.43;;;4.50;;
3155;SDS011;1588;50.892;7.082;2022-10-31T23:18:31;12.43;;;4.97;;
3155;SDS011;1588;50.892;7.082;2022-10-31T23:23:37;14.93;;;4.80;;
3155;SDS011;1588;50.892;7.082;2022-10-31T23:28:41;11.60;;;4.50;;
3155;SDS011;1588;50.892;7.082;2022-10-31T23:33:52;9.33;;;3.80;;
3155;SDS011;1588;50.892;7.082;2022-10-31T23:38:58;9.17;;;4.83;;
3155;SDS011;1588;50.892;7.082;2022-10-31T23:44:01;10.97;;;4.40;;
3155;SDS011;1588;50.892;7.082;2022-10-31T23:49:07;11.53;;;5.10;;
3155;SDS011;1588;50.892;7.082;2022-10-31T23:54:09;9.63;;;4.70;;
3155;SDS011;1588;50.892;7.082;2022-10-31T23:59:16;7.43;;;4.23;;
